Date,TemperatureHighF,TemperatureAvgF,TemperatureLowF,DewpointHighF,DewpointAvgF,DewpointLowF,HumidityHigh,HumidityAvg,HumidityLow,PressureMaxIn,PressureMinIn,WindSpeedMaxMPH,WindSpeedAvgMPH,GustSpeedMaxMPH,PrecipitationSumIn
2013-1-1,42,42,42,36,36,36,80,80,80,30.31,30.31,4,4,13,0.00
2013-1-2,42,42,42,36,36,36,80,80,80,30.31,30.31,4,4,13,0.00
2013-1-3,42,42,42,36,36,36,80,80,80,30.31,30.31,4,4,13,0.00
2013-1-4,42,42,42,36,36,36,80,80,80,30.31,30.31,4,4,13,0.00
2013-1-5,42,42,42,36,36,36,80,80,80,30.31,30.31,4,4,13,0.00
2013-1-6,42,42,42,36,36,36,80,80,80,30.31,30.31,4,4,13,0.00
2013-1-7,42,42,42,36,36,36,80,80,80,30.31,30.31,4,4,13,0.00
2013-1-8,42,42,42,36,36,36,80,80,80,30.31,30.31,4,4,13,0.00
2013-1-9,62,53,35,51,44,32,93,71,51,30.52,30.31,23,5,23,0.00
2013-1-10,60,53,41,42,32,27,69,46,33,30.70,30.52,17,2,17,0.00
2013-1-11,47,45,43,45,39,32,96,80,57,30.60,30.22,13,2,13,0.03
2013-1-12,57,48,43,51,46,42,98,94,81,30.31,30.23,8,1,8,0.00
2013-1-13,70,58,48,62,56,47,99,92,76,30.26,30.09,15,2,16,0.01
2013-1-14,67,58,44,63,55,42,97,90,81,30.41,30.08,21,6,21,0.15
2013-1-15,44,41,40,42,40,39,97,96,94,30.46,30.27,14,3,17,0.94
2013-1-16,47,42,38,45,41,38,97,95,90,30.28,30.02,16,2,16,0.33
2013-1-17,46,42,36,46,41,35,98,97,95,30.27,30.10,18,2,18,0.57
2013-1-18,45,39,32,36,28,17,98,68,34,30.63,30.25,15,3,15,0.09
2013-1-19,53,43,31,35,31,27,90,64,47,30.58,30.15,23,6,23,0.00
2013-1-20,61,50,39,35,26,11,72,43,20,30.19,30.00,34,9,34,0.00
2013-1-21,56,45,36,25,16,6,53,32,22,30.20,29.90,36,6,36,0.00
2013-1-22,36,28,23,11,2,-4,41,32,23,30.44,30.07,23,8,24,0.00
2013-1-23,27,21,18,12,5,0,64,49,34,30.50,30.43,18,2,18,0.00
2013-1-24,30,26,21,24,13,4,90,63,32,30.69,30.20,11,4,29,0.00
2013-1-25,26,23,18,22,15,7,83,71,49,30.68,30.22,7,3,17,0.00
2013-1-26,40,31,24,28,25,22,90,77,59,30.56,30.21,3,0,12,0.00
2013-1-27,39,33,25,28,25,22,90,74,60,30.75,30.59,7,2,14,0.00
2013-1-28,55,43,35,46,37,27,92,80,68,30.62,30.24,12,6,24,0.23
2013-1-29,74,59,45,57,50,43,93,73,54,30.26,30.10,9,4,19,0.00
2013-1-30,71,64,59,65,61,55,97,90,74,30.09,29.34,41,8,41,1.34
2013-1-31,65,46,36,63,28,18,93,52,36,30.06,29.36,32,13,41,0.46